createdAt,value
2018-04-06T00:00:40.348Z,1.40
2018-04-06T00:03:08.207Z,1.20
2018-04-06T00:05:36.069Z,1.10
2018-04-06T00:08:04.447Z,1.23
2018-04-06T00:10:33.068Z,1.40
2018-04-06T00:13:00.857Z,1.23
2018-04-06T00:15:29.571Z,1.30
2018-04-06T00:17:57.528Z,1.20
2018-04-06T00:20:25.866Z,1.20
2018-04-06T00:22:53.727Z,1.23
2018-04-06T00:25:21.687Z,1.03
2018-04-06T00:27:49.466Z,1.20
2018-04-06T00:30:18.508Z,1.20
2018-04-06T00:32:46.406Z,1.23
2018-04-06T00:35:14.226Z,1.20
2018-04-06T00:37:42.487Z,1.20
2018-04-06T00:40:11.390Z,1.37
2018-04-06T00:42:39.287Z,1.60
2018-04-06T00:45:07.210Z,1.60
2018-04-06T00:47:35.059Z,1.57
2018-04-06T00:50:02.967Z,1.70
2018-04-06T00:52:30.907Z,1.40
2018-04-06T00:54:59.206Z,1.40
2018-04-06T00:57:27.067Z,1.30
2018-04-06T00:59:55.167Z,1.73
2018-04-06T01:02:23.007Z,1.50
2018-04-06T01:04:51.127Z,1.40
2018-04-06T01:07:18.966Z,1.40
2018-04-06T01:09:46.848Z,1.40
2018-04-06T01:12:14.806Z,1.60
2018-04-06T01:14:42.626Z,1.50
2018-04-06T01:17:10.447Z,1.50
2018-04-06T01:19:38.526Z,1.43
2018-04-06T01:22:06.507Z,1.50
2018-04-06T01:24:34.407Z,1.60
2018-04-06T01:27:02.366Z,1.43
2018-04-06T01:29:31.749Z,1.50
2018-04-06T01:32:01.047Z,1.13
2018-04-06T01:34:28.947Z,1.60
2018-04-06T01:36:56.974Z,1.50
2018-04-06T01:39:24.809Z,1.40
2018-04-06T01:41:52.668Z,1.60
2018-04-06T01:44:20.506Z,1.40
2018-04-06T01:46:48.607Z,1.90
2018-04-06T01:49:16.566Z,1.47
2018-04-06T01:51:44.593Z,1.53
2018-04-06T01:54:12.693Z,1.50
2018-04-06T01:56:40.567Z,1.70
2018-04-06T01:59:08.467Z,1.40
2018-04-06T02:01:36.289Z,1.50
2018-04-06T02:04:04.169Z,1.60
2018-04-06T02:06:32.369Z,1.40
2018-04-06T02:09:00.229Z,1.50
2018-04-06T02:11:29.447Z,1.60
2018-04-06T02:13:57.268Z,1.50
2018-04-06T02:16:25.245Z,1.60
2018-04-06T02:18:53.286Z,1.90
2018-04-06T02:21:21.188Z,1.57
2018-04-06T02:23:49.106Z,1.77
2018-04-06T02:26:16.926Z,1.60
2018-04-06T02:28:44.846Z,1.60
2018-04-06T02:31:13.066Z,1.40
2018-04-06T02:33:41.025Z,1.60
2018-04-06T02:36:08.846Z,1.93
2018-04-06T02:38:36.726Z,1.73
2018-04-06T02:41:05.008Z,1.70
2018-04-06T02:43:32.847Z,1.50
2018-04-06T02:46:00.787Z,1.80
2018-04-06T02:48:28.773Z,1.70
2018-04-06T02:50:57.327Z,1.73
2018-04-06T02:53:25.226Z,1.80
2018-04-06T02:55:53.187Z,1.70
2018-04-06T02:58:21.087Z,1.70
2018-04-06T03:00:49.348Z,1.73
2018-04-06T03:03:18.228Z,1.80
2018-04-06T03:05:46.488Z,1.67
2018-04-06T03:08:14.688Z,1.80
2018-04-06T03:10:42.568Z,1.90
2018-04-06T03:13:11.009Z,1.90
2018-04-06T03:15:38.989Z,1.80
2018-04-06T03:18:07.290Z,1.90
2018-04-06T03:20:35.528Z,1.90
2018-04-06T03:23:03.428Z,1.80
2018-04-06T03:25:31.429Z,1.80
2018-04-06T03:28:00.288Z,1.70
2018-04-06T03:30:28.148Z,1.60
2018-04-06T03:32:55.968Z,1.63
2018-04-06T03:35:24.348Z,1.97
2018-04-06T03:37:52.428Z,1.80
2018-04-06T03:40:20.214Z,1.60
2018-04-06T03:42:48.288Z,1.67
2018-04-06T03:45:16.388Z,1.70
2018-04-06T03:47:44.308Z,1.70
2018-04-06T03:50:12.312Z,1.57
2018-04-06T03:52:40.312Z,1.43
2018-04-06T03:55:08.228Z,1.70
2018-04-06T03:57:36.387Z,1.80
2018-04-06T04:00:04.328Z,1.60
2018-04-06T04:02:32.050Z,1.60
2018-04-06T04:05:00.030Z,1.70
2018-04-06T04:07:28.250Z,1.50
2018-04-06T04:09:56.872Z,1.90
2018-04-06T04:12:24.810Z,1.77
2018-04-06T04:14:52.568Z,1.60
2018-04-06T04:17:20.294Z,1.70
2018-04-06T04:19:47.954Z,1.77
2018-04-06T04:22:15.874Z,1.90
2018-04-06T04:24:44.055Z,1.73
2018-04-06T04:27:11.915Z,1.90
2018-04-06T04:29:39.855Z,1.77
2018-04-06T04:32:07.696Z,1.70
2018-04-06T04:34:35.775Z,1.80
2018-04-06T04:37:03.516Z,1.90
2018-04-06T04:39:31.503Z,2.10
2018-04-06T04:41:59.515Z,2.10
2018-04-06T04:44:27.296Z,2.00
2018-04-06T04:46:56.315Z,2.00
2018-04-06T04:49:24.275Z,1.93
2018-04-06T04:51:52.130Z,1.97
2018-04-06T04:54:20.029Z,1.73
2018-04-06T04:56:47.969Z,1.80
2018-04-06T04:59:15.818Z,1.90
2018-04-06T05:01:43.658Z,1.83
2018-04-06T05:04:11.492Z,1.60
2018-04-06T05:06:39.660Z,1.97
2018-04-06T05:09:07.773Z,1.60
2018-04-06T05:11:35.527Z,1.80
2018-04-06T05:14:03.771Z,1.80
2018-04-06T05:16:36.037Z,1.70
2018-04-06T05:19:04.292Z,1.70
2018-04-06T05:21:32.131Z,1.60
2018-04-06T05:24:00.613Z,1.80
2018-04-06T05:26:28.811Z,1.60
2018-04-06T05:28:57.351Z,1.90
2018-04-06T05:31:25.353Z,1.97
2018-04-06T05:33:53.191Z,1.90
2018-04-06T05:38:52.870Z,1.83
2018-04-06T05:41:20.811Z,1.77
2018-04-06T05:43:48.748Z,2.53
2018-04-06T05:46:16.487Z,2.23
2018-04-06T05:48:44.366Z,2.03
2018-04-06T05:51:12.326Z,1.80
2018-04-06T05:53:40.308Z,2.10
2018-04-06T05:56:09.186Z,1.97
2018-04-06T05:58:37.139Z,2.07
2018-04-06T06:01:06.491Z,2.10
2018-04-06T06:03:34.350Z,2.27
2018-04-06T06:06:03.169Z,1.83
2018-04-06T06:08:31.148Z,1.70
2018-04-06T06:10:58.989Z,1.80
2018-04-06T06:13:26.949Z,1.70
2018-04-06T06:15:55.608Z,1.70
2018-04-06T06:18:23.447Z,1.60
2018-04-06T06:20:51.328Z,1.83
2018-04-06T06:23:19.083Z,1.60
2018-04-06T06:25:46.908Z,1.60
2018-04-06T06:28:14.768Z,1.73
2018-04-06T06:30:42.634Z,1.90
2018-04-06T06:33:11.227Z,1.93
2018-04-06T06:35:39.080Z,1.63
2018-04-06T06:38:06.867Z,1.73
2018-04-06T06:40:34.727Z,1.80
2018-04-06T06:43:02.570Z,1.80
2018-04-06T06:45:30.367Z,1.93
2018-04-06T06:47:58.205Z,1.77
2018-04-06T06:50:26.006Z,1.70
2018-04-06T06:52:54.646Z,1.60
2018-04-06T06:55:22.508Z,1.57
2018-04-06T06:57:50.413Z,1.90
2018-04-06T07:00:18.082Z,1.40
2018-04-06T07:02:46.048Z,1.77
2018-04-06T07:05:13.925Z,1.53
2018-04-06T07:07:41.694Z,1.60
2018-04-06T07:10:10.267Z,1.50
2018-04-06T07:12:38.153Z,1.40
2018-04-06T07:15:05.948Z,1.73
2018-04-06T07:17:33.726Z,1.53
2018-04-06T07:20:01.548Z,1.80
2018-04-06T07:22:29.625Z,1.87
2018-04-06T07:24:57.386Z,1.77
2018-04-06T07:27:25.225Z,1.50
2018-04-06T07:29:53.006Z,1.87
2018-04-06T07:32:20.890Z,1.40
2018-04-06T07:34:48.706Z,1.60
2018-04-06T07:37:16.526Z,1.50
2018-04-06T07:39:44.389Z,1.80
2018-04-06T07:42:12.286Z,1.83
2018-04-06T07:44:40.087Z,1.87
2018-04-06T07:47:07.876Z,1.77
2018-04-06T07:49:35.892Z,1.70
2018-04-06T07:52:03.805Z,1.47
2018-04-06T07:54:31.709Z,1.70
2018-04-06T07:56:59.549Z,1.67
2018-04-06T07:59:27.288Z,1.70
2018-04-06T08:01:55.167Z,1.60
2018-04-06T08:04:23.005Z,1.80
2018-04-06T08:06:50.825Z,1.50
2018-04-06T08:09:18.546Z,2.00
2018-04-06T08:11:46.488Z,1.50
2018-04-06T08:14:14.486Z,1.70
2018-04-06T08:16:42.309Z,1.60
2018-04-06T08:19:10.048Z,1.67
2018-04-06T08:21:37.986Z,1.70
2018-04-06T08:24:05.815Z,1.70
2018-04-06T08:26:33.606Z,1.80
2018-04-06T08:29:01.446Z,1.60
2018-04-06T08:31:29.189Z,1.70
2018-04-06T08:33:57.726Z,1.80
2018-04-06T08:36:25.566Z,2.13
2018-04-06T08:38:53.310Z,1.97
2018-04-06T08:41:21.126Z,1.93
2018-04-06T08:43:48.954Z,1.83
2018-04-06T08:46:16.692Z,1.63
2018-04-06T08:48:44.592Z,1.80
2018-04-06T08:51:12.407Z,1.60
2018-04-06T08:53:40.946Z,2.17
2018-04-06T08:56:09.565Z,1.60
2018-04-06T08:58:37.526Z,1.87
2018-04-06T09:01:05.326Z,1.87
2018-04-06T09:03:33.334Z,2.13
2018-04-06T09:06:01.256Z,1.90
2018-04-06T09:08:29.143Z,2.10
2018-04-06T09:10:57.039Z,2.10
2018-04-06T09:13:24.929Z,2.00
2018-04-06T09:15:52.847Z,2.07
2018-04-06T09:18:20.986Z,1.90
2018-04-06T09:20:49.266Z,1.80
2018-04-06T09:23:17.085Z,2.00
2018-04-06T09:25:44.970Z,1.73
2018-04-06T09:28:12.786Z,1.60
2018-04-06T09:30:41.366Z,1.50
2018-04-06T09:33:10.366Z,1.80
2018-04-06T09:35:38.287Z,1.87
2018-04-06T09:38:06.088Z,1.73
2018-04-06T09:40:34.110Z,1.60
2018-04-06T09:43:02.026Z,1.70
2018-04-06T09:45:30.166Z,1.70
2018-04-06T09:47:58.174Z,1.87
2018-04-06T09:50:26.423Z,1.90
2018-04-06T09:52:54.266Z,2.10
2018-04-06T09:55:22.146Z,1.87
2018-04-06T09:57:50.325Z,1.80
2018-04-06T10:00:24.479Z,1.57
2018-04-06T10:02:52.562Z,1.87
2018-04-06T10:05:20.492Z,1.70
2018-04-06T10:07:48.227Z,1.80
2018-04-06T10:10:16.126Z,1.63
2018-04-06T10:12:43.928Z,1.80
2018-04-06T10:17:43.848Z,1.90
2018-04-06T10:20:11.769Z,1.73
2018-04-06T10:22:40.286Z,1.80
2018-04-06T10:25:08.968Z,1.83
2018-04-06T10:27:36.928Z,1.90
2018-04-06T10:30:04.789Z,1.80
2018-04-06T10:32:32.607Z,1.90
2018-04-06T10:35:00.768Z,2.00
2018-04-06T10:37:28.668Z,2.07
2018-04-06T10:39:56.447Z,1.80
2018-04-06T10:42:24.406Z,1.73
2018-04-06T10:44:52.207Z,2.00
2018-04-06T10:47:20.208Z,1.93
2018-04-06T10:49:48.707Z,1.70
2018-04-06T10:52:16.609Z,1.70
2018-04-06T10:54:44.451Z,1.83
2018-04-06T10:57:12.329Z,1.73
2018-04-06T10:59:40.127Z,1.80
2018-04-06T11:02:08.046Z,1.90
2018-04-06T11:04:36.747Z,1.93
2018-04-06T11:07:04.606Z,1.80
2018-04-06T11:09:32.629Z,1.90
2018-04-06T11:12:00.367Z,1.80
2018-04-06T11:14:28.306Z,2.00
2018-04-06T11:16:56.608Z,1.43
2018-04-06T11:19:24.466Z,1.80
2018-04-06T11:21:52.349Z,2.30
2018-04-06T11:24:20.206Z,1.87
2018-04-06T11:26:48.067Z,1.90
2018-04-06T11:29:15.887Z,1.90
2018-04-06T11:31:43.848Z,1.60
2018-04-06T11:34:11.827Z,2.20
2018-04-06T11:36:39.747Z,2.30
2018-04-06T11:39:07.654Z,2.17
2018-04-06T11:41:35.586Z,2.23
2018-04-06T11:44:03.529Z,2.10
2018-04-06T11:46:32.146Z,2.10
2018-04-06T11:49:00.150Z,1.80
2018-04-06T11:51:27.966Z,2.50
2018-04-06T11:53:55.805Z,2.13
2018-04-06T11:56:23.966Z,2.20
2018-04-06T11:58:51.885Z,2.07
2018-04-06T12:01:19.850Z,2.20
2018-04-06T12:03:47.770Z,2.23
2018-04-06T12:06:15.935Z,2.00
2018-04-06T12:08:44.230Z,2.47
2018-04-06T12:11:12.152Z,2.20
2018-04-06T12:13:40.973Z,2.23
2018-04-06T12:16:08.969Z,2.40
2018-04-06T12:18:36.894Z,2.27
2018-04-06T12:21:04.730Z,2.50
2018-04-06T12:23:32.572Z,2.20
2018-04-06T12:26:00.450Z,2.00
2018-04-06T12:28:28.490Z,2.10
2018-04-06T12:30:56.389Z,2.13
2018-04-06T12:33:24.449Z,1.90
2018-04-06T12:35:52.409Z,2.60
2018-04-06T12:38:20.269Z,2.30
2018-04-06T12:40:48.090Z,2.20
2018-04-06T12:43:15.891Z,2.90
2018-04-06T12:45:43.750Z,2.57
2018-04-06T12:48:11.589Z,2.60
2018-04-06T12:50:40.147Z,2.40
2018-04-06T12:53:07.907Z,2.40
2018-04-06T12:55:35.791Z,2.40
2018-04-06T12:58:03.728Z,2.50
2018-04-06T13:00:31.561Z,2.53
2018-04-06T13:02:59.457Z,2.37
2018-04-06T13:05:27.369Z,2.13
2018-04-06T13:07:55.327Z,2.30
2018-04-06T13:10:23.268Z,2.67
2018-04-06T13:12:51.192Z,2.30
2018-04-06T13:15:19.107Z,2.50
2018-04-06T13:17:47.050Z,2.73
2018-04-06T13:22:46.968Z,3.10
2018-04-06T13:25:14.748Z,2.90
2018-04-06T13:27:43.009Z,2.77
2018-04-06T13:30:11.209Z,2.20
2018-04-06T13:32:39.208Z,2.40
2018-04-06T13:35:07.110Z,2.27
2018-04-06T13:37:35.267Z,2.50
2018-04-06T13:40:03.107Z,2.60
2018-04-06T13:42:31.007Z,2.53
2018-04-06T13:44:58.915Z,2.40
2018-04-06T13:47:26.834Z,2.53
2018-04-06T13:49:54.754Z,2.60
2018-04-06T13:52:22.693Z,2.50
2018-04-06T13:54:51.095Z,2.80
2018-04-06T13:57:18.991Z,2.90
2018-04-06T13:59:46.853Z,3.50
2018-04-06T14:02:14.691Z,3.10
2018-04-06T14:04:42.550Z,2.70
2018-04-06T14:07:10.370Z,3.00
2018-04-06T14:09:39.031Z,3.60
2018-04-06T14:12:07.531Z,3.20
2018-04-06T14:14:35.731Z,2.90
2018-04-06T14:17:03.966Z,3.00
2018-04-06T14:19:31.874Z,3.40
2018-04-06T14:21:59.792Z,3.20
2018-04-06T14:24:27.732Z,3.13
2018-04-06T14:26:55.655Z,3.97
2018-04-06T14:29:25.070Z,3.30
2018-04-06T14:31:52.948Z,3.40
2018-04-06T14:34:20.768Z,3.13
2018-04-06T14:36:48.626Z,3.40
2018-04-06T14:39:16.447Z,3.27
2018-04-06T14:41:44.387Z,4.00
2018-04-06T14:44:13.827Z,3.77
2018-04-06T14:46:41.686Z,3.20
2018-04-06T14:49:09.668Z,3.93
2018-04-06T14:51:37.527Z,3.77
2018-04-06T14:54:06.489Z,3.97
2018-04-06T14:56:34.487Z,3.80
2018-04-06T14:59:02.250Z,3.70
2018-04-06T15:01:30.170Z,4.47
2018-04-06T15:03:58.130Z,3.33
2018-04-06T15:06:26.016Z,4.03
2018-04-06T15:08:54.046Z,3.63
2018-04-06T15:11:21.886Z,3.57
2018-04-06T15:13:51.017Z,3.43
2018-04-06T15:16:19.048Z,3.57
2018-04-06T15:18:48.349Z,3.90
2018-04-06T15:21:16.327Z,3.33
2018-04-06T15:23:44.288Z,3.33
2018-04-06T15:26:12.206Z,3.20
2018-04-06T15:28:40.628Z,3.90
2018-04-06T15:31:08.508Z,3.70
2018-04-06T15:33:36.366Z,3.30
2018-04-06T15:36:04.370Z,3.50
2018-04-06T15:38:32.826Z,3.50
2018-04-06T15:41:00.750Z,3.60
2018-04-06T15:43:28.988Z,3.83
2018-04-06T15:45:56.812Z,3.60
2018-04-06T15:48:24.665Z,3.70
2018-04-06T15:50:52.454Z,4.53
2018-04-06T15:53:20.989Z,4.00
2018-04-06T15:55:48.971Z,4.23
2018-04-06T15:58:16.832Z,3.40
2018-04-06T16:00:44.735Z,3.97
2018-04-06T16:03:12.689Z,4.30
2018-04-06T16:05:40.688Z,4.27
2018-04-06T16:08:09.008Z,3.47
2018-04-06T16:10:37.089Z,3.60
2018-04-06T16:13:05.342Z,3.70
2018-04-06T16:15:33.171Z,3.67
2018-04-06T16:18:01.131Z,3.53
2018-04-06T16:20:29.051Z,3.60
2018-04-06T16:22:56.930Z,3.63
2018-04-06T16:25:24.868Z,3.37
2018-04-06T16:27:52.731Z,3.57
2018-04-06T16:30:20.531Z,3.77
2018-04-06T16:32:49.569Z,3.63
2018-04-06T16:35:17.459Z,3.60
2018-04-06T16:37:45.288Z,3.73
2018-04-06T16:40:13.211Z,3.70
2018-04-06T16:42:42.311Z,3.43
2018-04-06T16:45:11.950Z,3.70
2018-04-06T16:47:40.009Z,3.57
2018-04-06T16:50:07.867Z,3.33
2018-04-06T16:52:36.651Z,3.10
2018-04-06T16:55:04.351Z,3.47
2018-04-06T16:57:32.227Z,3.17
2018-04-06T17:00:00.092Z,3.10
2018-04-06T17:02:28.136Z,3.37
2018-04-06T17:04:55.975Z,3.63
2018-04-06T17:07:23.915Z,3.30
2018-04-06T17:09:51.792Z,3.43
2018-04-06T17:12:20.129Z,3.10
2018-04-06T17:14:48.929Z,3.30
2018-04-06T17:17:16.888Z,4.30
2018-04-06T17:19:44.943Z,5.33
2018-04-06T17:22:12.678Z,7.00
2018-04-06T17:24:41.751Z,6.93
2018-04-06T17:27:09.612Z,7.90
2018-04-06T17:29:37.473Z,7.17
2018-04-06T17:32:05.652Z,8.10
2018-04-06T17:34:34.212Z,7.80
2018-04-06T17:37:02.200Z,7.60
2018-04-06T17:39:30.193Z,7.87
2018-04-06T17:41:58.095Z,8.07
2018-04-06T17:44:26.011Z,8.03
2018-04-06T17:46:53.913Z,8.10
2018-04-06T17:49:21.542Z,8.40
2018-04-06T17:51:49.932Z,8.13
2018-04-06T17:54:18.093Z,8.10
2018-04-06T17:56:46.270Z,8.13
2018-04-06T17:59:15.033Z,8.73
2018-04-06T18:01:42.813Z,8.20
2018-04-06T18:04:13.487Z,9.40
2018-04-06T18:06:43.814Z,8.37
2018-04-06T18:09:12.769Z,9.23
2018-04-06T18:11:42.147Z,9.40
2018-04-06T18:14:10.967Z,8.83
2018-04-06T18:16:40.320Z,8.80
2018-04-06T18:19:09.575Z,8.50
2018-04-06T18:21:37.634Z,9.03
2018-04-06T18:24:06.411Z,8.80
2018-04-06T18:26:35.980Z,8.70
2018-04-06T18:29:04.410Z,8.30
2018-04-06T18:31:34.162Z,8.93
2018-04-06T18:34:03.834Z,9.17
2018-04-06T18:36:31.752Z,8.53
2018-04-06T18:39:01.024Z,9.07
2018-04-06T18:41:30.797Z,9.77
2018-04-06T18:43:59.849Z,9.00
2018-04-06T18:46:29.732Z,8.93
2018-04-06T18:48:58.010Z,9.33
2018-04-06T18:51:25.948Z,9.20
2018-04-06T18:53:54.156Z,10.00
2018-04-06T18:56:22.356Z,9.33
2018-04-06T18:58:51.488Z,8.73
2018-04-06T19:01:19.820Z,8.97
2018-04-06T19:03:50.112Z,9.20
2018-04-06T19:06:35.995Z,9.70
2018-04-06T19:09:07.273Z,8.70
2018-04-06T19:11:36.893Z,8.73
2018-04-06T19:14:09.052Z,9.77
2018-04-06T19:16:44.389Z,9.27
2018-04-06T19:19:30.406Z,9.77
2018-04-06T19:24:30.793Z,9.27
2018-04-06T19:27:00.934Z,9.27
2018-04-06T19:29:29.574Z,9.67
2018-04-06T19:31:58.044Z,9.37
2018-04-06T19:34:26.114Z,8.93
2018-04-06T19:39:25.936Z,9.33
2018-04-06T19:41:53.888Z,9.33
2018-04-06T19:44:23.068Z,9.50
2018-04-06T19:46:50.927Z,9.33
2018-04-06T19:49:18.812Z,9.27
2018-04-06T19:51:47.165Z,8.97
2018-04-06T19:54:15.891Z,8.87
2018-04-06T19:56:43.922Z,9.70
2018-04-06T19:59:17.883Z,9.33
2018-04-06T20:01:47.064Z,9.17
2018-04-06T20:04:18.163Z,10.17
2018-04-06T20:06:47.025Z,9.17
2018-04-06T20:09:23.931Z,9.57
2018-04-06T20:12:01.299Z,10.33
2018-04-06T20:14:29.733Z,10.10
2018-04-06T20:16:57.669Z,9.27
2018-04-06T20:22:27.807Z,9.87
2018-04-06T20:24:58.078Z,10.33
2018-04-06T20:30:35.908Z,9.40
2018-04-06T20:33:05.174Z,11.40
2018-04-06T20:35:33.073Z,8.87
2018-04-06T20:38:01.709Z,8.73
2018-04-06T20:40:29.493Z,9.03
2018-04-06T20:42:57.687Z,8.87
2018-04-06T20:45:25.523Z,8.77
2018-04-06T20:47:54.469Z,9.50
2018-04-06T20:50:22.927Z,9.37
2018-04-06T20:55:42.747Z,9.33
2018-04-06T20:58:33.422Z,10.13
2018-04-06T21:01:05.213Z,8.60
2018-04-06T21:03:33.448Z,9.67
2018-04-06T21:06:01.253Z,9.67
2018-04-06T21:08:30.269Z,9.03
2018-04-06T21:10:58.847Z,9.87
2018-04-06T21:13:26.896Z,9.27
2018-04-06T21:15:59.766Z,9.73
2018-04-06T21:18:29.956Z,8.83
2018-04-06T21:20:59.467Z,8.73
2018-04-06T21:23:28.411Z,8.53
2018-04-06T21:25:56.692Z,8.27
2018-04-06T21:28:24.609Z,9.67
2018-04-06T21:30:53.048Z,9.53
2018-04-06T21:33:22.469Z,9.00
2018-04-06T21:35:53.730Z,8.50
2018-04-06T21:38:24.608Z,8.60
2018-04-06T21:40:53.650Z,9.37
2018-04-06T21:43:24.466Z,9.27
2018-04-06T21:46:04.534Z,9.73
2018-04-06T21:48:37.896Z,8.83
2018-04-06T21:51:08.526Z,8.87
2018-04-06T21:53:36.431Z,9.47
2018-04-06T21:56:04.387Z,9.40
2018-04-06T21:58:33.680Z,9.87
2018-04-06T22:01:01.446Z,9.30
2018-04-06T22:03:29.470Z,9.53
2018-04-06T22:05:57.328Z,10.07
2018-04-06T22:08:25.289Z,9.93
2018-04-06T22:10:53.127Z,10.30
2018-04-06T22:13:20.905Z,9.63
2018-04-06T22:15:48.613Z,8.73
2018-04-06T22:18:16.354Z,9.67
2018-04-06T22:20:44.088Z,9.63
2018-04-06T22:23:11.818Z,8.40
2018-04-06T22:25:39.566Z,8.93
2018-04-06T22:30:40.249Z,8.37
2018-04-06T22:33:08.571Z,8.93
2018-04-06T22:35:36.356Z,9.33
2018-04-06T22:38:04.145Z,8.90
2018-04-06T22:40:31.888Z,9.50
2018-04-06T22:43:00.657Z,9.70
2018-04-06T22:45:28.396Z,9.93
2018-04-06T22:47:57.060Z,9.20
2018-04-06T22:50:24.793Z,9.57
2018-04-06T22:52:52.552Z,9.10
2018-04-06T22:55:20.333Z,9.40
2018-04-06T22:57:48.033Z,9.30
2018-04-06T23:00:15.863Z,9.87
2018-04-06T23:02:43.670Z,9.97
2018-04-06T23:05:11.377Z,8.93
2018-04-06T23:07:39.168Z,9.70
2018-04-06T23:10:06.908Z,8.77
2018-04-06T23:12:34.662Z,8.57
2018-04-06T23:15:02.348Z,9.07
2018-04-06T23:17:30.079Z,8.83
2018-04-06T23:19:57.847Z,10.63
2018-04-06T23:22:25.547Z,10.53
2018-04-06T23:24:53.251Z,9.17
2018-04-06T23:27:28.840Z,9.53
2018-04-06T23:29:56.546Z,9.20
2018-04-06T23:32:24.347Z,9.50
2018-04-06T23:34:52.069Z,10.50
2018-04-06T23:37:20.588Z,9.60
2018-04-06T23:39:48.407Z,9.60
2018-04-06T23:42:16.127Z,9.40
2018-04-06T23:44:43.846Z,9.83
2018-04-06T23:47:11.576Z,9.87
2018-04-06T23:49:39.327Z,9.47
2018-04-06T23:52:07.087Z,9.47
2018-04-06T23:54:34.807Z,10.47
2018-04-06T23:57:02.547Z,9.80
2018-04-06T23:59:31.087Z,9.80
